Time;durP1;ratioP1;P1;durP2;ratioP2;P2;SDS_P1;SDS_P2;PMS_P1;PMS_P2;Temp;Humidity;BMP_temperature;BMP_pressure;BME280_temperature;BME280_humidity;BME280_pressure;Samples;Min_cycle;Max_cycle;Signal;HPM_P1;HPM_P2
2021/10/15 06:58:15;;;;;;;5.50;2.67;;;12.90;99.90;;;;;;4944328;29;20228;-70
2021/10/15 07:00:42;;;;;;;4.93;2.50;;;12.90;99.90;;;;;;4946338;29;20263;-69
2021/10/15 07:03:16;;;;;;;7.60;2.67;;;13.00;99.90;;;;;;4955172;28;20232;-71
2021/10/15 07:05:43;;;;;;;5.57;2.80;;;13.10;99.90;;;;;;4955661;29;20211;-69
2021/10/15 07:08:09;;;;;;;4.43;2.40;;;13.00;99.90;;;;;;4955273;29;20212;-69
2021/10/15 07:10:36;;;;;;;5.73;2.37;;;13.00;99.90;;;;;;4955506;29;20212;-69
2021/10/15 07:13:04;;;;;;;4.57;2.40;;;13.00;99.90;;;;;;4943772;29;20224;-69
2021/10/15 07:15:32;;;;;;;3.93;2.37;;;13.00;99.90;;;;;;4936009;29;20212;-70
2021/10/15 07:18:00;;;;;;;4.97;2.30;;;12.90;99.90;;;;;;4972139;28;20211;-73
2021/10/15 07:20:28;;;;;;;5.43;2.80;;;12.90;99.90;;;;;;4973314;28;20741;-70
2021/10/15 07:22:55;;;;;;;5.67;2.60;;;12.90;99.90;;;;;;4970824;28;20305;-69
2021/10/15 07:25:22;;;;;;;5.97;2.37;;;13.00;99.90;;;;;;4952724;29;20204;-70
2021/10/15 07:27:50;;;;;;;4.63;2.60;;;12.90;99.90;;;;;;4953624;29;20208;-67
2021/10/15 07:30:17;;;;;;;8.23;2.47;;;12.90;99.90;;;;;;4953459;29;20686;-74
2021/10/15 07:32:46;;;;;;;7.87;2.73;;;13.00;99.90;;;;;;4953517;29;20726;-69
2021/10/15 07:35:12;;;;;;;6.20;2.53;;;13.10;99.90;;;;;;4954714;29;20208;-68
2021/10/15 07:37:39;;;;;;;4.03;2.43;;;13.10;99.90;;;;;;4954492;29;20267;-70
2021/10/15 07:40:08;;;;;;;6.77;2.43;;;13.10;99.90;;;;;;4953307;29;20412;-69
2021/10/15 07:42:34;;;;;;;5.80;2.53;;;13.10;99.90;;;;;;4953525;29;20706;-71
2021/10/15 07:45:01;;;;;;;8.53;2.83;;;13.20;99.90;;;;;;4953647;29;20239;-74
2021/10/15 07:47:28;;;;;;;8.03;2.60;;;13.40;99.90;;;;;;4953722;29;20219;-68
2021/10/15 07:49:56;;;;;;;6.73;2.73;;;13.50;99.90;;;;;;4953273;29;20904;-71
2021/10/15 07:52:23;;;;;;;6.83;2.83;;;13.60;99.90;;;;;;4953565;29;20224;-72
2021/10/15 07:54:50;;;;;;;9.17;2.80;;;13.60;99.90;;;;;;4956332;28;20212;-72
2021/10/15 07:57:17;;;;;;;7.83;2.57;;;13.60;99.90;;;;;;4957652;29;20219;-74
2021/10/15 07:59:44;;;;;;;3.87;2.33;;;13.60;99.90;;;;;;4957224;29;20234;-73
2021/10/15 08:02:11;;;;;;;7.07;2.80;;;13.70;99.90;;;;;;4957387;29;20232;-73
2021/10/15 08:04:38;;;;;;;5.03;2.77;;;13.70;99.90;;;;;;4957218;29;20682;-73
2021/10/15 08:07:06;;;;;;;7.43;2.80;;;13.80;99.90;;;;;;4957785;29;20215;-75
2021/10/15 08:09:33;;;;;;;4.93;2.80;;;13.90;99.90;;;;;;4938837;28;20219;-73
2021/10/15 08:12:00;;;;;;;4.37;2.57;;;13.90;99.90;;;;;;4937979;29;20213;-73
2021/10/15 08:14:27;;;;;;;5.10;3.00;;;13.90;99.90;;;;;;4952379;29;20258;-72
2021/10/15 08:16:54;;;;;;;5.40;2.60;;;13.90;99.90;;;;;;4957156;29;20204;-71
2021/10/15 08:19:21;;;;;;;4.80;2.63;;;13.90;99.90;;;;;;4956767;29;20210;-74
2021/10/15 08:21:47;;;;;;;5.77;3.00;;;14.00;99.90;;;;;;4956932;29;20235;-71
2021/10/15 08:24:16;;;;;;;7.10;2.63;;;14.10;99.90;;;;;;4956875;29;20218;-73
2021/10/15 08:26:42;;;;;;;4.20;2.40;;;14.20;99.90;;;;;;4956800;29;20218;-74
2021/10/15 08:29:09;;;;;;;6.97;2.77;;;14.30;99.90;;;;;;4956928;29;20559;-75
2021/10/15 08:31:37;;;;;;;5.03;2.80;;;14.50;99.90;;;;;;4956967;29;20212;-73
2021/10/15 08:34:07;;;;;;;3.80;2.30;;;14.60;99.90;;;;;;4956696;29;20220;-73
2021/10/15 08:36:34;;;;;;;5.00;2.37;;;14.80;99.90;;;;;;4956627;29;20560;-74
2021/10/15 08:39:01;;;;;;;5.90;2.67;;;14.80;99.90;;;;;;4956984;29;20558;-77
2021/10/15 08:41:29;;;;;;;7.50;2.60;;;14.80;99.90;;;;;;4956207;29;20271;-72
2021/10/15 08:43:58;;;;;;;5.13;2.80;;;14.80;99.90;;;;;;4956873;29;20245;-73
2021/10/15 08:46:25;;;;;;;6.77;2.60;;;14.90;99.90;;;;;;4956156;29;20218;-72
2021/10/15 08:48:52;;;;;;;6.10;2.23;;;14.90;99.90;;;;;;4956305;28;20207;-72
2021/10/15 08:51:21;;;;;;;7.17;2.67;;;14.90;99.90;;;;;;4956057;29;20208;-75
2021/10/15 08:53:51;;;;;;;4.43;2.33;;;15.00;99.90;;;;;;4956450;29;20228;-75
2021/10/15 08:56:18;;;;;;;5.67;2.53;;;15.20;99.90;;;;;;4956281;29;20220;-73
2021/10/15 08:58:51;;;;;;;4.77;2.60;;;15.30;99.90;;;;;;4956348;28;20218;-76
2021/10/15 09:01:18;;;;;;;5.63;2.80;;;15.20;99.90;;;;;;4956443;29;20243;-74
2021/10/15 09:03:45;;;;;;;4.70;2.20;;;15.10;99.90;;;;;;4956468;29;20234;-73
2021/10/15 09:06:12;;;;;;;4.23;2.60;;;15.10;99.90;;;;;;4955596;28;20218;-73
2021/10/15 09:08:48;;;;;;;6.43;2.80;;;15.20;99.90;;;;;;4955897;28;20662;-72
2021/10/15 09:11:32;;;;;;;6.87;2.90;;;15.30;99.90;;;;;;4956487;29;20212;-74
2021/10/15 09:14:13;;;;;;;5.07;2.73;;;15.30;99.90;;;;;;4957409;29;20319;-72
2021/10/15 09:17:00;;;;;;;5.37;2.80;;;15.10;99.90;;;;;;4957204;29;20617;-69
2021/10/15 09:19:29;;;;;;;6.10;2.57;;;15.10;99.90;;;;;;4957478;29;20243;-73
2021/10/15 09:22:12;;;;;;;7.67;2.63;;;15.10;99.90;;;;;;4956963;29;20239;-72
2021/10/15 09:24:41;;;;;;;4.13;2.37;;;15.10;99.90;;;;;;4957104;29;20663;-70
2021/10/15 09:27:13;;;;;;;5.83;2.60;;;15.10;99.90;;;;;;4956804;29;20637;-69
2021/10/15 09:29:47;;;;;;;4.97;2.53;;;15.20;99.90;;;;;;4957103;29;20215;-72
2021/10/15 09:32:15;;;;;;;7.63;2.90;;;15.40;99.90;;;;;;4957238;29;20228;-74
2021/10/15 09:34:43;;;;;;;5.37;2.60;;;15.40;99.90;;;;;;4957201;29;20218;-75
2021/10/15 09:37:15;;;;;;;5.43;2.73;;;15.40;99.90;;;;;;4957321;29;20208;-74
2021/10/15 09:39:42;;;;;;;10.17;2.90;;;15.30;99.90;;;;;;4956955;29;20211;-72
2021/10/15 09:42:25;;;;;;;8.10;2.80;;;15.20;99.90;;;;;;4957092;29;20240;-72
2021/10/15 09:44:54;;;;;;;6.77;3.10;;;15.30;99.90;;;;;;4958047;29;20681;-76
2021/10/15 09:47:24;;;;;;;7.83;3.03;;;15.40;99.90;;;;;;4957059;28;20214;-71
2021/10/15 09:49:57;;;;;;;6.77;2.60;;;15.40;99.90;;;;;;4956826;29;20235;-73
2021/10/15 09:52:29;;;;;;;5.53;2.50;;;15.60;99.90;;;;;;4956759;28;20663;-72
2021/10/15 09:54:57;;;;;;;5.87;2.63;;;15.70;99.90;;;;;;4956781;29;20216;-72
2021/10/15 09:57:32;;;;;;;5.63;2.67;;;15.70;99.90;;;;;;4956611;29;20216;-71
2021/10/15 10:00:01;;;;;;;7.90;2.50;;;15.80;99.90;;;;;;4956538;28;20677;-73
2021/10/15 10:02:29;;;;;;;8.70;2.80;;;15.80;99.90;;;;;;4956203;29;20244;-71
2021/10/15 10:04:56;;;;;;;6.43;2.70;;;15.50;99.90;;;;;;4952474;29;20376;-70
2021/10/15 10:07:24;;;;;;;6.90;3.10;;;15.40;99.90;;;;;;4956839;29;20215;-74
2021/10/15 10:09:52;;;;;;;6.10;2.90;;;15.30;99.90;;;;;;4956329;28;20208;-72
2021/10/15 10:12:21;;;;;;;6.87;3.00;;;15.20;99.90;;;;;;4956315;29;20232;-74
2021/10/15 10:14:48;;;;;;;5.67;3.20;;;15.00;99.90;;;;;;4956210;29;20212;-74
2021/10/15 10:17:25;;;;;;;6.70;3.40;;;14.90;99.90;;;;;;4955176;28;20222;-73
2021/10/15 10:19:58;;;;;;;6.13;3.40;;;15.00;99.90;;;;;;4956582;28;20208;-70
2021/10/15 10:22:28;;;;;;;9.20;3.67;;;14.90;99.90;;;;;;4956128;29;20248;-74
2021/10/15 10:24:57;;;;;;;7.13;3.40;;;14.80;99.90;;;;;;4956166;29;20208;-69
2021/10/15 10:27:29;;;;;;;6.10;3.80;;;14.70;99.90;;;;;;4956050;29;20246;-71
2021/10/15 10:29:57;;;;;;;7.93;4.10;;;14.60;99.90;;;;;;4956294;29;20212;-69
2021/10/15 10:32:27;;;;;;;6.20;3.50;;;14.60;99.90;;;;;;4955809;29;20231;-70
2021/10/15 10:34:54;;;;;;;8.73;3.70;;;14.70;99.90;;;;;;4956168;28;20212;-70
2021/10/15 10:37:22;;;;;;;6.43;3.60;;;14.70;99.90;;;;;;4956345;29;20215;-69
2021/10/15 10:40:05;;;;;;;5.83;1.97;;;14.60;99.90;;;;;;4956250;29;20218;-69
2021/10/15 10:42:32;;;;;;;2.40;1.57;;;14.30;99.90;;;;;;4955713;29;20235;-69
2021/10/15 10:45:13;;;;;;;2.40;1.00;;;14.00;99.90;;;;;;4955957;29;20204;-70
2021/10/15 10:48:05;;;;;;;1.63;0.63;;;13.80;99.90;;;;;;4955713;28;20515;-69
2021/10/15 10:50:33;;;;;;;2.97;0.87;;;13.70;99.90;;;;;;4955663;28;20212;-71
2021/10/15 10:53:09;;;;;;;3.00;0.60;;;13.40;99.90;;;;;;4955762;29;20354;-69
2021/10/15 10:55:39;;;;;;;1.03;0.63;;;13.20;99.90;;;;;;4955648;29;20207;-70
2021/10/15 10:58:29;;;;;;;0.80;0.50;;;13.30;99.90;;;;;;4955210;29;20587;-73
2021/10/15 11:01:26;;;;;;;2.00;0.70;;;13.30;99.90;;;;;;4946368;28;20236;-68
2021/10/15 11:03:54;;;;;;;1.27;0.60;;;13.50;99.90;;;;;;4955386;29;20243;-71
2021/10/15 11:06:21;;;;;;;2.17;0.57;;;13.60;99.90;;;;;;4955507;29;20208;-69
2021/10/15 11:08:48;;;;;;;0.50;0.40;;;13.90;99.90;;;;;;4955570;29;20215;-69
2021/10/15 11:11:43;;;;;;;1.93;0.50;;;14.00;99.90;;;;;;4955281;29;20211;-70
2021/10/15 11:14:40;;;;;;;2.77;0.47;;;13.90;99.90;;;;;;4955193;29;20703;-69
2021/10/15 11:17:12;;;;;;;0.70;0.40;;;14.00;99.90;;;;;;4942865;28;20208;-69
2021/10/15 11:19:39;;;;;;;2.63;0.60;;;14.30;99.90;;;;;;4954955;29;20215;-70
2021/10/15 11:22:06;;;;;;;1.00;0.50;;;14.30;99.90;;;;;;4955285;29;20244;-69
2021/10/15 11:24:33;;;;;;;2.87;0.40;;;14.50;99.90;;;;;;4955223;29;20207;-70
2021/10/15 11:27:00;;;;;;;1.20;0.60;;;14.50;99.90;;;;;;4963296;28;20207;-69
2021/10/15 11:29:26;;;;;;;1.23;0.50;;;14.60;99.90;;;;;;4972600;28;20203;-75
2021/10/15 11:31:55;;;;;;;0.50;0.30;;;14.70;99.90;;;;;;4973179;28;20207;-70
2021/10/15 11:34:23;;;;;;;0.77;0.30;;;14.40;99.90;;;;;;4973184;28;20211;-71
2021/10/15 11:37:03;;;;;;;0.87;0.50;;;14.30;99.90;;;;;;4957442;28;20212;-71
2021/10/15 11:39:30;;;;;;;0.67;0.40;;;14.40;99.90;;;;;;4953849;29;20619;-70
2021/10/15 11:41:57;;;;;;;1.83;0.60;;;14.50;99.90;;;;;;4953615;29;20278;-71
2021/10/15 11:44:34;;;;;;;2.73;0.50;;;14.40;99.90;;;;;;4953917;29;20215;-69
2021/10/15 11:47:01;;;;;;;0.37;0.30;;;14.50;99.90;;;;;;4955078;29;20222;-68
2021/10/15 11:49:38;;;;;;;1.70;0.30;;;14.50;99.90;;;;;;4955080;29;20216;-69
2021/10/15 11:52:05;;;;;;;0.30;0.20;;;14.80;99.90;;;;;;4954743;29;20207;-69
2021/10/15 11:54:32;;;;;;;1.67;0.50;;;15.10;99.90;;;;;;4954753;29;20255;-69
2021/10/15 11:56:59;;;;;;;2.17;0.43;;;15.40;99.90;;;;;;4954694;29;20219;-72
2021/10/15 11:59:26;;;;;;;0.83;0.40;;;15.50;99.90;;;;;;4955026;29;20243;-68
2021/10/15 12:01:53;;;;;;;1.43;0.33;;;15.50;99.90;;;;;;4954568;29;20736;-68
2021/10/15 12:04:20;;;;;;;1.90;0.30;;;15.60;99.90;;;;;;4954738;29;20212;-68
2021/10/15 12:06:51;;;;;;;1.27;0.23;;;15.60;99.90;;;;;;4954777;29;20212;-69
2021/10/15 12:09:20;;;;;;;0.90;0.30;;;15.50;99.90;;;;;;4954644;29;20207;-69
2021/10/15 12:11:52;;;;;;;1.87;0.30;;;15.50;99.90;;;;;;4954354;29;20211;-74
2021/10/15 12:14:22;;;;;;;1.30;0.40;;;15.30;99.90;;;;;;4950446;29;20218;-73
2021/10/15 12:16:55;;;;;;;3.40;0.40;;;15.30;99.90;;;;;;4953170;29;20212;-71
2021/10/15 12:19:29;;;;;;;2.33;1.10;;;15.20;99.90;;;;;;4953555;29;20690;-69
2021/10/15 12:22:06;;;;;;;2.20;0.30;;;15.30;99.90;;;;;;4954150;29;20235;-72
2021/10/15 12:24:34;;;;;;;2.83;0.33;;;15.50;99.90;;;;;;4954798;29;20207;-71
2021/10/15 12:27:17;;;;;;;2.60;0.30;;;15.60;99.90;;;;;;4954581;29;20303;-72
2021/10/15 12:29:46;;;;;;;1.93;0.40;;;15.70;99.90;;;;;;4952911;28;20545;-69
2021/10/15 12:32:20;;;;;;;2.23;0.40;;;15.70;99.90;;;;;;4954430;29;20232;-68
2021/10/15 12:35:10;;;;;;;1.37;0.30;;;15.70;99.90;;;;;;4954533;29;20709;-72
2021/10/15 12:37:44;;;;;;;3.40;0.60;;;15.80;99.90;;;;;;4954660;29;20303;-68
2021/10/15 12:40:14;;;;;;;2.87;0.43;;;16.00;99.90;;;;;;4954883;28;20571;-71
2021/10/15 12:42:42;;;;;;;2.20;0.47;;;15.70;99.90;;;;;;4957781;29;20721;-70
2021/10/15 12:45:11;;;;;;;2.77;0.30;;;15.70;99.90;;;;;;4957926;29;20295;-69
2021/10/15 12:47:39;;;;;;;1.50;0.23;;;15.70;99.90;;;;;;4957878;29;20204;-71
2021/10/15 12:50:07;;;;;;;1.27;0.40;;;15.90;99.90;;;;;;4957981;29;20214;-70
2021/10/15 12:52:37;;;;;;;1.77;0.30;;;15.80;99.90;;;;;;4958650;29;20236;-70
2021/10/15 12:55:14;;;;;;;3.80;0.30;;;16.00;99.90;;;;;;4957963;29;20208;-70
2021/10/15 12:57:41;;;;;;;2.83;0.40;;;16.30;99.90;;;;;;4957586;29;20216;-70
2021/10/15 13:00:10;;;;;;;4.87;0.43;;;16.40;99.90;;;;;;4958056;29;20230;-71
2021/10/15 13:02:37;;;;;;;2.50;0.30;;;16.20;99.90;;;;;;4957612;29;20718;-69
2021/10/15 13:05:06;;;;;;;1.27;0.30;;;16.20;99.90;;;;;;4957892;29;20212;-70
2021/10/15 13:07:34;;;;;;;4.40;0.50;;;16.10;99.90;;;;;;4957528;29;20215;-70
2021/10/15 13:10:15;;;;;;;2.10;0.40;;;16.00;99.90;;;;;;4957441;29;20215;-69
2021/10/15 13:12:42;;;;;;;0.63;0.30;;;16.10;99.90;;;;;;4957218;29;20728;-70
2021/10/15 13:15:09;;;;;;;0.87;0.30;;;15.80;99.90;;;;;;4957622;29;20215;-70
2021/10/15 13:17:37;;;;;;;2.50;0.40;;;16.10;99.90;;;;;;4957505;28;20306;-70
2021/10/15 13:20:05;;;;;;;2.00;0.53;;;16.30;99.90;;;;;;4957222;29;20215;-70
2021/10/15 13:22:32;;;;;;;2.60;0.37;;;16.60;99.90;;;;;;4957147;28;20267;-70
2021/10/15 13:24:59;;;;;;;1.33;0.30;;;16.80;99.90;;;;;;4957423;28;20211;-70
2021/10/15 13:27:27;;;;;;;2.80;0.60;;;16.80;99.90;;;;;;4957196;29;20215;-70
2021/10/15 13:29:54;;;;;;;1.60;0.30;;;16.80;99.90;;;;;;4957284;29;20204;-70
2021/10/15 13:32:21;;;;;;;2.23;0.40;;;16.70;99.90;;;;;;4957202;29;20643;-70
2021/10/15 13:34:49;;;;;;;4.27;0.50;;;16.50;99.90;;;;;;4957244;29;20215;-70
2021/10/15 13:37:19;;;;;;;2.97;0.60;;;16.40;99.90;;;;;;4956773;29;20299;-71
2021/10/15 13:39:48;;;;;;;2.43;0.53;;;16.30;99.90;;;;;;4957206;29;20631;-70
2021/10/15 13:50:39;;;;;;;2.83;0.70;;;16.40;99.90;;;;;;4956996;29;20258;-70
2021/10/15 13:53:07;;;;;;;0.83;0.60;;;16.40;99.90;;;;;;4956637;28;20231;-73
2021/10/15 13:55:39;;;;;;;1.23;0.60;;;16.40;99.90;;;;;;4956860;29;20204;-70
2021/10/15 13:58:11;;;;;;;3.07;0.67;;;16.50;99.90;;;;;;4956335;29;20219;-71
2021/10/15 14:00:42;;;;;;;2.53;0.53;;;16.60;99.90;;;;;;4956703;29;20204;-69
2021/10/15 14:03:16;;;;;;;2.63;0.70;;;16.70;99.90;;;;;;4956572;28;20239;-72
2021/10/15 14:05:43;;;;;;;4.50;0.70;;;16.30;99.90;;;;;;4956378;29;20215;-70
2021/10/15 14:08:10;;;;;;;3.90;1.07;;;16.40;99.90;;;;;;4956523;29;20207;-72
2021/10/15 14:10:41;;;;;;;0.90;0.70;;;16.60;99.90;;;;;;4956194;29;20214;-70
2021/10/15 14:13:07;;;;;;;1.10;0.80;;;16.80;99.90;;;;;;4956172;29;20235;-71
2021/10/15 14:15:34;;;;;;;1.90;0.60;;;16.80;99.90;;;;;;4956412;29;20211;-70
2021/10/15 14:18:02;;;;;;;5.07;1.00;;;16.80;99.90;;;;;;4956331;29;20219;-70
2021/10/15 14:20:29;;;;;;;1.73;0.80;;;16.90;99.90;;;;;;4956413;29;20218;-69
2021/10/15 14:22:56;;;;;;;4.87;1.30;;;17.00;99.90;;;;;;4955972;29;20239;-69
2021/10/15 14:25:23;;;;;;;5.57;1.37;;;17.00;99.90;;;;;;4956003;29;20240;-71
2021/10/15 14:27:50;;;;;;;3.17;1.47;;;16.90;99.90;;;;;;4956040;29;20662;-70
2021/10/15 14:30:21;;;;;;;2.23;1.33;;;16.90;99.90;;;;;;4956019;29;20208;-70
2021/10/15 14:32:48;;;;;;;7.30;2.40;;;17.10;99.90;;;;;;4955867;29;20223;-74
2021/10/15 14:35:17;;;;;;;1.90;1.23;;;17.00;99.90;;;;;;4955865;28;20603;-70
2021/10/15 14:37:44;;;;;;;3.60;1.07;;;17.00;99.90;;;;;;4956004;29;20212;-70
2021/10/15 14:40:11;;;;;;;6.57;1.20;;;17.00;99.90;;;;;;4956051;28;20218;-71
2021/10/15 14:42:37;;;;;;;4.53;2.10;;;16.90;99.90;;;;;;4955556;29;20240;-69
2021/10/15 14:45:05;;;;;;;1.93;1.27;;;16.90;99.90;;;;;;4955949;29;20234;-73
2021/10/15 14:47:32;;;;;;;4.00;1.37;;;16.80;99.90;;;;;;4955832;29;20215;-76
2021/10/15 14:49:59;;;;;;;5.13;1.37;;;16.80;99.90;;;;;;4955774;29;20208;-73
2021/10/15 14:52:27;;;;;;;4.20;1.50;;;16.90;99.90;;;;;;4956119;29;20236;-70
2021/10/15 14:54:54;;;;;;;3.20;1.30;;;16.90;99.90;;;;;;4955884;29;20210;-69
2021/10/15 14:57:21;;;;;;;2.10;1.20;;;16.80;99.90;;;;;;4955544;29;20589;-69
2021/10/15 14:59:48;;;;;;;3.00;1.20;;;16.80;99.90;;;;;;4955547;28;20209;-77
2021/10/15 15:02:16;;;;;;;5.40;1.10;;;16.70;99.90;;;;;;4955444;29;20231;-70
2021/10/15 15:04:43;;;;;;;4.00;0.87;;;16.80;99.90;;;;;;4954910;28;20208;-70
2021/10/15 15:07:10;;;;;;;3.73;0.87;;;16.60;99.90;;;;;;4955597;29;20211;-69
2021/10/15 15:09:38;;;;;;;3.57;1.00;;;16.50;99.90;;;;;;4955399;29;20222;-75
2021/10/15 15:12:08;;;;;;;1.90;0.80;;;16.40;99.90;;;;;;4955008;29;20208;-74
2021/10/15 15:14:35;;;;;;;11.17;1.40;;;16.40;99.90;;;;;;4955444;29;20291;-69
2021/10/15 15:17:02;;;;;;;3.97;1.43;;;16.40;99.90;;;;;;4955272;29;20218;-74
2021/10/15 15:19:29;;;;;;;3.67;0.67;;;16.30;99.90;;;;;;4955356;29;20211;-72
2021/10/15 15:21:59;;;;;;;3.07;0.83;;;16.20;99.90;;;;;;4955423;29;20235;-70
2021/10/15 15:24:26;;;;;;;1.30;0.60;;;16.10;99.90;;;;;;4955162;29;20663;-70
2021/10/15 15:26:54;;;;;;;2.30;0.60;;;15.40;99.90;;;;;;4955288;29;20208;-70
2021/10/15 15:29:21;;;;;;;3.23;0.50;;;15.10;99.90;;;;;;4955166;28;20208;-69
2021/10/15 15:31:48;;;;;;;3.73;0.83;;;14.80;99.90;;;;;;4955116;29;20574;-77
2021/10/15 15:34:15;;;;;;;3.97;0.70;;;14.50;99.90;;;;;;4955403;29;20222;-78
2021/10/15 15:36:43;;;;;;;1.47;0.67;;;14.50;99.90;;;;;;4955171;29;20211;-74
2021/10/15 15:39:10;;;;;;;1.60;0.40;;;14.50;99.90;;;;;;4955420;29;20255;-73
2021/10/15 15:41:39;;;;;;;2.00;0.67;;;14.50;99.90;;;;;;4954824;29;20208;-77
2021/10/15 15:44:13;;;;;;;1.23;0.50;;;14.40;99.90;;;;;;4954924;29;20244;-70
2021/10/15 15:46:42;;;;;;;1.93;0.60;;;14.30;99.90;;;;;;4955179;29;20207;-69
2021/10/15 15:49:09;;;;;;;2.07;0.57;;;14.50;99.90;;;;;;4955105;29;20299;-73
2021/10/15 15:51:36;;;;;;;2.23;0.57;;;14.50;99.90;;;;;;4954977;29;20204;-73
2021/10/15 15:54:03;;;;;;;3.30;0.80;;;14.50;99.90;;;;;;4954619;29;20703;-76
2021/10/15 15:56:30;;;;;;;4.53;0.70;;;14.50;99.90;;;;;;4954772;29;20216;-76
2021/10/15 15:58:57;;;;;;;4.00;0.83;;;14.30;99.90;;;;;;4954710;29;20219;-73
2021/10/15 16:01:25;;;;;;;1.87;0.53;;;14.50;99.90;;;;;;4954864;29;20560;-73
2021/10/15 16:03:54;;;;;;;4.90;0.80;;;14.50;99.90;;;;;;4954619;29;20246;-71
2021/10/15 16:06:21;;;;;;;2.73;0.53;;;14.40;99.90;;;;;;4954844;28;20298;-77
2021/10/15 16:08:48;;;;;;;1.03;0.50;;;14.50;99.90;;;;;;4954708;29;20218;-78
2021/10/15 16:11:16;;;;;;;3.23;0.70;;;14.60;99.90;;;;;;4954634;29;20211;-72
2021/10/15 16:13:43;;;;;;;4.33;0.70;;;14.80;99.90;;;;;;4954647;29;20236;-72
2021/10/15 16:16:11;;;;;;;2.10;0.50;;;15.00;99.90;;;;;;4958296;28;20267;-70
2021/10/15 16:18:39;;;;;;;2.43;0.80;;;15.10;99.90;;;;;;4958631;29;20208;-77
2021/10/15 16:21:06;;;;;;;4.67;0.90;;;15.20;99.90;;;;;;4958433;29;20207;-76
2021/10/15 16:23:33;;;;;;;3.13;1.03;;;15.30;99.90;;;;;;4958229;29;20250;-72
2021/10/15 16:26:00;;;;;;;2.93;0.87;;;15.20;99.90;;;;;;4958408;29;20225;-73
2021/10/15 16:28:27;;;;;;;3.47;1.00;;;15.20;99.90;;;;;;4958470;29;20218;-71
2021/10/15 16:30:53;;;;;;;2.27;1.00;;;15.30;99.90;;;;;;4958467;29;20203;-71
2021/10/15 16:33:20;;;;;;;7.23;1.00;;;15.30;99.90;;;;;;4958242;29;20320;-71
2021/10/15 16:35:48;;;;;;;2.07;0.80;;;15.30;99.90;;;;;;4957977;29;20571;-73
2021/10/15 16:38:15;;;;;;;2.53;1.23;;;15.40;99.90;;;;;;4958009;29;20216;-70
2021/10/15 16:40:42;;;;;;;1.57;0.70;;;15.40;99.90;;;;;;4957825;29;20287;-75
2021/10/15 16:43:09;;;;;;;1.73;1.00;;;15.40;99.90;;;;;;4957799;29;20346;-78
2021/10/15 16:45:36;;;;;;;5.20;0.93;;;15.40;99.90;;;;;;4958090;29;20241;-71
2021/10/15 16:48:05;;;;;;;4.43;1.10;;;15.30;99.90;;;;;;4958143;29;20209;-73
2021/10/15 16:50:31;;;;;;;8.10;1.40;;;15.20;99.90;;;;;;4957890;28;20247;-70
2021/10/15 16:52:59;;;;;;;4.70;1.20;;;15.40;99.90;;;;;;4957652;29;20232;-71
2021/10/15 16:55:26;;;;;;;2.90;1.07;;;15.10;99.90;;;;;;4958260;29;20290;-70
2021/10/15 16:57:55;;;;;;;3.23;1.07;;;14.90;99.90;;;;;;4957538;29;20220;-76
2021/10/15 17:00:22;;;;;;;4.20;1.10;;;14.70;99.90;;;;;;4957854;28;20651;-69
2021/10/15 17:02:49;;;;;;;2.90;1.10;;;14.70;99.90;;;;;;4957651;29;20267;-70
2021/10/15 17:05:16;;;;;;;4.57;1.30;;;14.60;99.90;;;;;;4957461;29;20212;-70
2021/10/15 17:07:42;;;;;;;1.77;0.93;;;14.40;99.90;;;;;;4957249;29;20536;-70
2021/10/15 17:10:11;;;;;;;2.97;1.20;;;14.20;99.90;;;;;;4957646;29;20231;-73
2021/10/15 17:12:38;;;;;;;4.47;1.20;;;14.00;99.90;;;;;;4957244;29;20231;-70
2021/10/15 17:15:06;;;;;;;2.47;0.80;;;14.00;99.90;;;;;;4957435;29;20208;-70
2021/10/15 17:17:32;;;;;;;1.80;0.93;;;13.90;99.90;;;;;;4957411;29;20204;-77
2021/10/15 17:19:59;;;;;;;2.43;0.70;;;13.70;99.90;;;;;;4957197;29;20686;-71
2021/10/15 17:22:26;;;;;;;2.23;0.67;;;13.60;99.90;;;;;;4957158;29;20228;-70
2021/10/15 17:24:53;;;;;;;1.47;0.70;;;13.50;99.90;;;;;;4957339;29;20244;-73
2021/10/15 17:27:21;;;;;;;1.20;0.93;;;13.40;99.90;;;;;;4956489;28;20215;-71
2021/10/15 17:29:48;;;;;;;1.60;0.90;;;13.30;99.90;;;;;;4957081;29;20215;-70
2021/10/15 17:32:15;;;;;;;1.47;0.60;;;13.20;99.90;;;;;;4956890;29;20234;-70
2021/10/15 17:34:42;;;;;;;0.97;0.60;;;13.20;99.90;;;;;;4957048;29;20216;-72
2021/10/15 17:37:09;;;;;;;5.70;0.83;;;13.10;99.90;;;;;;4957147;29;20582;-70
2021/10/15 17:39:38;;;;;;;3.23;0.77;;;13.00;99.90;;;;;;4957292;29;20204;-71
2021/10/15 17:42:05;;;;;;;2.27;0.70;;;12.90;99.90;;;;;;4956766;29;20211;-71
2021/10/15 17:44:33;;;;;;;1.90;0.70;;;12.80;99.90;;;;;;4956985;29;20706;-74
2021/10/15 17:47:01;;;;;;;2.47;0.60;;;12.70;99.90;;;;;;4957090;29;20212;-70
2021/10/15 17:49:30;;;;;;;3.40;1.00;;;12.70;99.90;;;;;;4957067;29;20204;-71
2021/10/15 17:51:57;;;;;;;2.70;1.00;;;12.80;99.90;;;;;;4957105;29;20208;-74
2021/10/15 17:54:24;;;;;;;4.77;1.27;;;12.70;99.90;;;;;;4956828;29;20214;-70
2021/10/15 17:56:51;;;;;;;5.93;1.23;;;12.70;99.90;;;;;;4956727;29;20219;-70
2021/10/15 17:59:17;;;;;;;3.60;0.93;;;12.50;99.90;;;;;;4956757;29;20208;-70
2021/10/15 18:01:45;;;;;;;3.70;1.40;;;12.50;99.90;;;;;;4956484;29;20660;-70
2021/10/15 18:04:12;;;;;;;5.63;2.23;;;12.50;99.90;;;;;;4956536;29;20328;-72
2021/10/15 18:06:39;;;;;;;5.30;1.40;;;12.50;99.90;;;;;;4956903;29;20204;-71
2021/10/15 18:09:07;;;;;;;2.90;1.33;;;12.40;99.90;;;;;;4956510;29;20218;-71
2021/10/15 18:11:34;;;;;;;3.60;1.27;;;12.30;99.90;;;;;;4956162;29;20239;-70
2021/10/15 18:14:01;;;;;;;4.30;1.50;;;12.30;99.90;;;;;;4956308;29;20714;-70
2021/10/15 18:16:28;;;;;;;3.50;1.63;;;12.30;99.90;;;;;;4956367;29;20208;-70
2021/10/15 18:18:57;;;;;;;7.80;1.77;;;12.30;99.90;;;;;;4956450;29;20208;-70
2021/10/15 18:21:23;;;;;;;3.53;1.67;;;12.20;99.90;;;;;;4956263;29;20267;-70
2021/10/15 18:23:50;;;;;;;5.50;1.50;;;12.30;99.90;;;;;;4956008;29;20243;-74
2021/10/15 18:26:18;;;;;;;7.30;2.00;;;12.30;99.90;;;;;;4956276;29;20655;-70
2021/10/15 18:28:45;;;;;;;6.23;1.97;;;12.30;99.90;;;;;;4956077;29;20204;-70
2021/10/15 18:31:13;;;;;;;8.00;1.90;;;12.40;99.90;;;;;;4956509;29;20344;-70
2021/10/15 18:33:41;;;;;;;6.97;1.80;;;12.40;99.90;;;;;;4956220;28;20227;-74
2021/10/15 18:36:09;;;;;;;5.90;1.73;;;12.40;99.90;;;;;;4955972;29;20207;-70
2021/10/15 18:38:37;;;;;;;5.57;1.80;;;12.40;99.90;;;;;;4955368;28;20208;-70
2021/10/15 18:41:04;;;;;;;8.90;2.30;;;12.60;99.90;;;;;;4956014;29;20239;-70
2021/10/15 18:43:31;;;;;;;7.03;1.87;;;12.70;99.90;;;;;;4955498;29;20243;-70
2021/10/15 18:45:58;;;;;;;5.90;2.00;;;12.70;99.90;;;;;;4956112;29;20210;-70
2021/10/15 18:48:25;;;;;;;6.43;1.60;;;12.80;99.90;;;;;;4955948;29;20216;-70
2021/10/15 18:50:51;;;;;;;2.67;1.70;;;12.70;99.90;;;;;;4956472;29;20214;-71
2021/10/15 18:53:20;;;;;;;4.23;1.50;;;12.70;99.90;;;;;;4956564;29;20240;-70
2021/10/15 18:55:48;;;;;;;4.13;1.50;;;12.90;99.90;;;;;;4956438;29;20212;-70
2021/10/15 18:58:16;;;;;;;5.07;2.30;;;12.80;99.90;;;;;;4956094;29;20802;-70
2021/10/15 19:00:43;;;;;;;4.80;2.40;;;12.80;99.90;;;;;;4955795;29;20571;-70
2021/10/15 19:03:09;;;;;;;7.93;2.73;;;12.70;99.90;;;;;;4955467;29;20228;-70
2021/10/15 19:05:36;;;;;;;5.83;2.53;;;12.70;99.90;;;;;;4955393;29;20208;-70
2021/10/15 19:08:03;;;;;;;5.93;2.30;;;12.80;99.90;;;;;;4955769;29;20259;-69
2021/10/15 19:10:31;;;;;;;5.40;2.37;;;12.90;99.90;;;;;;4955518;29;20211;-72
2021/10/15 19:12:58;;;;;;;3.90;2.00;;;12.90;99.90;;;;;;4955127;29;20235;-71
2021/10/15 19:15:25;;;;;;;10.07;3.23;;;12.90;99.90;;;;;;4955536;29;20671;-71
2021/10/15 19:17:52;;;;;;;4.60;2.37;;;12.80;99.90;;;;;;4955846;29;20419;-69
2021/10/15 19:20:19;;;;;;;7.13;2.40;;;12.80;99.90;;;;;;4955526;29;20204;-69
2021/10/15 19:22:47;;;;;;;6.67;2.30;;;12.80;99.90;;;;;;4955306;29;20235;-70
2021/10/15 19:25:14;;;;;;;6.30;2.40;;;12.70;99.90;;;;;;4955067;29;20242;-70
2021/10/15 19:27:44;;;;;;;5.90;2.13;;;12.60;99.90;;;;;;4955074;28;20703;-68
2021/10/15 19:30:16;;;;;;;4.17;1.80;;;12.40;99.90;;;;;;4955389;29;20215;-67
2021/10/15 19:32:43;;;;;;;3.83;1.57;;;12.30;99.90;;;;;;4955314;29;20770;-68
2021/10/15 19:35:10;;;;;;;3.43;1.60;;;12.50;99.90;;;;;;4955312;29;20208;-68
2021/10/15 19:37:37;;;;;;;3.50;1.60;;;12.70;99.90;;;;;;4955532;29;20204;-71
2021/10/15 19:40:05;;;;;;;7.27;1.80;;;12.90;99.90;;;;;;4955522;29;20214;-68
2021/10/15 19:42:33;;;;;;;5.17;2.20;;;12.90;99.90;;;;;;4955195;29;20236;-67
2021/10/15 19:45:01;;;;;;;3.50;1.23;;;12.80;99.90;;;;;;4955354;29;20722;-69
2021/10/15 19:47:28;;;;;;;7.43;1.53;;;13.00;99.90;;;;;;4955400;29;20208;-68
2021/10/15 19:49:55;;;;;;;5.40;1.73;;;13.10;99.90;;;;;;4955250;28;20204;-68
2021/10/15 19:52:22;;;;;;;7.60;1.77;;;13.10;99.90;;;;;;4955137;29;20232;-68
2021/10/15 19:54:49;;;;;;;9.53;1.80;;;13.00;99.90;;;;;;4955092;29;20207;-68
2021/10/15 19:57:16;;;;;;;7.43;2.13;;;12.80;99.90;;;;;;4954472;29;20212;-69
2021/10/15 19:59:43;;;;;;;8.40;2.03;;;12.90;99.90;;;;;;4955054;29;20596;-68